createdAt,value
2023-11-09T00:00:54.170Z,9.20
2023-11-09T00:03:46.094Z,8.90
2023-11-09T00:06:18.459Z,12.40
2023-11-09T00:08:50.296Z,8.70
2023-11-09T00:11:22.483Z,9.80
2023-11-09T00:13:54.293Z,9.30
2023-11-09T00:16:26.142Z,9.20
2023-11-09T00:18:58.557Z,7.40
2023-11-09T00:21:30.444Z,9.80
2023-11-09T00:24:04.405Z,14.70
2023-11-09T00:26:36.272Z,11.70
2023-11-09T00:29:08.104Z,11.10
2023-11-09T00:31:39.969Z,10.70
2023-11-09T00:34:12.168Z,11.40
2023-11-09T00:36:44.494Z,10.10
2023-11-09T00:39:18.705Z,12.50
2023-11-09T00:41:50.588Z,10.80
2023-11-09T00:44:22.419Z,11.50
2023-11-09T00:46:54.270Z,12.10
2023-11-09T00:49:26.063Z,12.80
2023-11-09T00:51:57.952Z,11.30
2023-11-09T00:54:29.911Z,14.20
2023-11-09T00:57:01.755Z,14.10
2023-11-09T00:59:33.580Z,13.80
2023-11-09T01:02:06.045Z,12.50
2023-11-09T01:04:37.963Z,14.60
2023-11-09T01:07:11.126Z,13.60
2023-11-09T01:09:43.167Z,12.80
2023-11-09T01:12:15.130Z,13.00
2023-11-09T01:14:46.962Z,11.60
2023-11-09T01:17:18.782Z,11.60
2023-11-09T01:19:50.682Z,9.70
2023-11-09T01:22:22.652Z,11.50
2023-11-09T01:24:54.460Z,11.50
2023-11-09T01:27:26.351Z,14.50
2023-11-09T01:29:58.397Z,13.30
2023-11-09T01:32:30.356Z,12.60
2023-11-09T01:35:02.445Z,14.10
2023-11-09T01:37:35.624Z,13.30
2023-11-09T01:40:09.839Z,13.30
2023-11-09T01:42:45.110Z,12.70
2023-11-09T01:45:17.000Z,14.40
2023-11-09T01:47:49.147Z,11.80
2023-11-09T01:50:21.468Z,11.50
2023-11-09T01:52:53.735Z,11.40
2023-11-09T01:55:27.565Z,12.90
2023-11-09T01:58:00.689Z,9.50
2023-11-09T02:00:33.337Z,9.20
2023-11-09T02:03:07.289Z,12.20
2023-11-09T02:05:39.432Z,10.20
2023-11-09T02:08:11.786Z,9.90
2023-11-09T02:10:43.634Z,12.90
2023-11-09T02:13:15.747Z,11.50
2023-11-09T02:15:47.722Z,10.10
2023-11-09T02:18:20.091Z,12.00
2023-11-09T02:20:53.578Z,12.60
2023-11-09T02:23:29.222Z,9.70
2023-11-09T02:26:01.228Z,15.30
2023-11-09T02:28:34.143Z,12.50
2023-11-09T02:31:06.209Z,13.40
2023-11-09T02:33:38.072Z,11.10
2023-11-09T02:36:10.753Z,11.20
2023-11-09T02:38:42.595Z,12.90
2023-11-09T02:41:14.438Z,12.30
2023-11-09T02:43:46.227Z,13.30
2023-11-09T02:46:18.116Z,11.70
2023-11-09T02:48:50.086Z,13.10
2023-11-09T02:51:21.877Z,12.00
2023-11-09T02:53:54.606Z,12.60
2023-11-09T02:56:26.995Z,12.90
2023-11-09T02:58:58.829Z,10.40
2023-11-09T03:01:30.708Z,11.90
2023-11-09T03:04:02.550Z,14.80
2023-11-09T03:06:34.352Z,11.90
2023-11-09T03:09:08.802Z,13.60
2023-11-09T03:11:40.593Z,16.80
2023-11-09T03:14:12.833Z,13.20
2023-11-09T03:16:46.430Z,15.30
2023-11-09T03:19:18.418Z,14.30
2023-11-09T03:21:50.286Z,13.10
2023-11-09T03:24:22.041Z,13.90
2023-11-09T03:26:54.069Z,12.00
2023-11-09T03:29:26.013Z,12.70
2023-11-09T03:31:57.821Z,12.10
2023-11-09T03:34:29.749Z,13.80
2023-11-09T03:37:01.755Z,11.50
2023-11-09T03:39:36.881Z,12.20
2023-11-09T03:42:09.993Z,13.20
2023-11-09T03:44:42.772Z,13.70
2023-11-09T03:47:15.975Z,14.10
2023-11-09T03:49:47.776Z,11.30
2023-11-09T03:52:19.653Z,12.70
2023-11-09T03:54:51.458Z,10.10
2023-11-09T03:57:23.543Z,10.80
2023-11-09T03:59:55.364Z,12.90
2023-11-09T04:02:27.198Z,11.20
2023-11-09T04:04:59.239Z,11.60
2023-11-09T04:07:31.578Z,14.30
2023-11-09T04:10:03.562Z,11.50
2023-11-09T04:12:35.391Z,14.80
2023-11-09T04:15:10.494Z,15.50
2023-11-09T04:17:42.584Z,13.20
2023-11-09T04:20:14.939Z,13.60
2023-11-09T04:22:46.854Z,13.10
2023-11-09T04:25:19.279Z,14.10
2023-11-09T04:27:52.064Z,13.30
2023-11-09T04:33:11.520Z,18.60
2023-11-09T04:35:47.707Z,14.20
2023-11-09T04:38:20.477Z,14.60
2023-11-09T04:40:56.783Z,14.80
2023-11-09T04:43:28.634Z,14.40
2023-11-09T04:46:06.828Z,17.10
2023-11-09T04:48:45.590Z,16.40
2023-11-09T04:51:23.981Z,17.90
2023-11-09T04:54:04.566Z,16.90
2023-11-09T04:56:54.651Z,13.00
2023-11-09T04:59:44.090Z,16.30
2023-11-09T05:02:33.349Z,15.30
2023-11-09T05:05:22.727Z,13.00
2023-11-09T05:07:54.606Z,11.50
2023-11-09T05:10:26.468Z,14.30
2023-11-09T05:12:58.385Z,16.00
2023-11-09T05:15:30.638Z,17.10
2023-11-09T05:18:03.592Z,15.30
2023-11-09T05:20:35.424Z,15.10
2023-11-09T05:23:09.580Z,11.10
2023-11-09T05:25:42.804Z,16.20
2023-11-09T05:28:14.779Z,12.80
2023-11-09T05:30:46.696Z,14.90
2023-11-09T05:33:18.581Z,13.90
2023-11-09T05:35:50.806Z,13.80
2023-11-09T05:38:23.337Z,12.00
2023-11-09T05:40:56.217Z,13.00
2023-11-09T05:43:28.519Z,16.30
2023-11-09T05:46:00.659Z,11.10
2023-11-09T05:48:33.666Z,16.60
2023-11-09T05:51:05.735Z,18.40
2023-11-09T05:53:37.603Z,16.00
2023-11-09T05:56:11.148Z,14.70
2023-11-09T05:58:42.993Z,14.60
2023-11-09T06:01:15.263Z,15.40
2023-11-09T06:03:47.203Z,16.60
2023-11-09T06:06:19.176Z,14.10
2023-11-09T06:08:51.033Z,18.60
2023-11-09T06:11:22.844Z,16.80
2023-11-09T06:13:55.532Z,14.50
2023-11-09T06:16:27.390Z,16.30
2023-11-09T06:18:59.398Z,16.00
2023-11-09T06:21:31.366Z,16.80
2023-11-09T06:24:03.659Z,16.90
2023-11-09T06:26:36.295Z,14.30
2023-11-09T06:29:08.220Z,19.00
2023-11-09T06:31:40.510Z,19.90
2023-11-09T06:34:16.018Z,17.70
2023-11-09T06:36:49.157Z,18.40
2023-11-09T06:39:23.878Z,16.00
2023-11-09T06:41:55.732Z,17.60
2023-11-09T06:44:27.684Z,16.90
2023-11-09T06:46:59.691Z,19.40
2023-11-09T06:49:31.638Z,22.50
2023-11-09T06:52:04.008Z,17.50
2023-11-09T06:54:35.881Z,13.70
2023-11-09T06:57:12.418Z,16.70
2023-11-09T06:59:44.966Z,19.90
2023-11-09T07:02:17.216Z,21.10
2023-11-09T07:04:49.171Z,21.50
2023-11-09T07:07:21.089Z,20.20
2023-11-09T07:09:53.018Z,20.40
2023-11-09T07:12:26.305Z,19.50
2023-11-09T07:14:58.158Z,15.20
2023-11-09T07:17:30.042Z,15.50
2023-11-09T07:20:01.890Z,16.30
2023-11-09T07:22:34.756Z,14.50
2023-11-09T07:25:13.483Z,12.90
2023-11-09T07:27:46.183Z,15.00
2023-11-09T07:30:19.680Z,14.20
2023-11-09T07:32:51.542Z,13.60
2023-11-09T07:35:25.828Z,14.30
2023-11-09T07:37:57.616Z,11.90
2023-11-09T07:40:29.716Z,12.80
2023-11-09T07:43:01.599Z,10.90
2023-11-09T07:45:33.543Z,11.00
2023-11-09T07:48:05.914Z,11.60
2023-11-09T07:50:39.272Z,12.10
2023-11-09T07:53:12.304Z,10.90
2023-11-09T07:55:45.622Z,11.40
2023-11-09T07:58:18.477Z,9.50
2023-11-09T08:00:51.332Z,9.90
2023-11-09T08:03:23.221Z,11.40
2023-11-09T08:05:56.222Z,10.10
2023-11-09T08:08:28.003Z,10.90
2023-11-09T08:11:00.252Z,12.20
2023-11-09T08:13:32.109Z,11.20
2023-11-09T08:16:03.976Z,9.50
2023-11-09T08:18:35.912Z,10.00
2023-11-09T08:21:08.209Z,8.40
2023-11-09T08:23:40.771Z,29.80
2023-11-09T08:26:13.455Z,8.90
2023-11-09T08:28:45.426Z,6.50
2023-11-09T08:31:17.449Z,9.50
2023-11-09T08:33:49.378Z,8.80
2023-11-09T08:36:21.219Z,9.60
2023-11-09T08:38:53.108Z,8.30
2023-11-09T08:41:27.758Z,9.40
2023-11-09T08:43:59.562Z,7.80
2023-11-09T08:46:31.992Z,7.00
2023-11-09T08:49:04.430Z,6.20
2023-11-09T08:51:36.381Z,9.10
2023-11-09T08:54:11.691Z,4.90
2023-11-09T08:56:43.505Z,6.50
2023-11-09T08:59:15.276Z,7.50
2023-11-09T09:01:50.390Z,6.60
2023-11-09T09:04:22.530Z,6.90
2023-11-09T09:06:55.309Z,5.90
2023-11-09T09:09:34.171Z,6.50
2023-11-09T09:12:11.446Z,4.70
2023-11-09T09:14:44.081Z,7.20
2023-11-09T09:17:16.986Z,9.50
2023-11-09T09:19:50.127Z,7.90
2023-11-09T09:22:22.005Z,6.40
2023-11-09T09:24:53.803Z,4.70
2023-11-09T09:27:25.610Z,3.80
2023-11-09T09:29:58.643Z,5.30
2023-11-09T09:32:30.541Z,5.70
2023-11-09T09:35:02.756Z,4.50
2023-11-09T09:37:38.838Z,5.30
2023-11-09T09:40:16.401Z,4.90
2023-11-09T09:42:50.933Z,4.80
2023-11-09T09:45:27.652Z,4.50
2023-11-09T09:48:02.435Z,5.80
2023-11-09T09:50:38.514Z,4.60
2023-11-09T09:53:10.985Z,6.10
2023-11-09T09:55:43.202Z,5.10
2023-11-09T09:58:15.084Z,3.80
2023-11-09T10:00:49.099Z,4.50
2023-11-09T10:03:24.539Z,5.50
2023-11-09T10:05:56.766Z,7.20
2023-11-09T10:08:28.734Z,2.90
2023-11-09T10:11:00.622Z,5.00
2023-11-09T10:13:34.939Z,2.60
2023-11-09T10:16:07.683Z,3.40
2023-11-09T10:18:39.608Z,2.50
2023-11-09T10:21:15.026Z,2.20
2023-11-09T10:23:55.472Z,3.40
2023-11-09T10:26:41.406Z,2.30
2023-11-09T10:29:15.773Z,6.30
2023-11-09T10:31:47.872Z,2.70
2023-11-09T10:34:20.557Z,2.20
2023-11-09T10:36:56.109Z,2.10
2023-11-09T10:39:30.103Z,4.00
2023-11-09T10:42:05.618Z,2.50
2023-11-09T10:44:39.222Z,3.10
2023-11-09T10:47:11.305Z,5.10
2023-11-09T10:49:45.688Z,3.10
2023-11-09T10:52:20.357Z,4.30
2023-11-09T10:54:53.426Z,1.80
2023-11-09T10:57:27.961Z,2.70
2023-11-09T10:59:59.834Z,1.70
2023-11-09T11:02:34.310Z,1.60
2023-11-09T11:05:07.864Z,2.30
2023-11-09T11:07:41.415Z,2.10
2023-11-09T11:10:18.204Z,1.30
2023-11-09T11:12:51.562Z,2.20
2023-11-09T11:15:32.752Z,1.50
2023-11-09T11:18:18.104Z,2.70
2023-11-09T11:21:21.343Z,2.20
2023-11-09T11:24:17.958Z,1.30
2023-11-09T11:27:08.915Z,1.70
2023-11-09T11:29:50.111Z,2.30
2023-11-09T11:32:34.834Z,1.70
2023-11-09T11:35:08.211Z,2.90
2023-11-09T11:37:40.736Z,1.80
2023-11-09T11:40:14.053Z,3.40
2023-11-09T11:42:45.925Z,3.60
2023-11-09T11:45:23.560Z,2.00
2023-11-09T11:48:02.213Z,3.70
2023-11-09T11:50:37.275Z,2.20
2023-11-09T11:53:13.678Z,2.30
2023-11-09T11:55:59.572Z,4.00
2023-11-09T11:58:48.668Z,1.90
2023-11-09T12:01:32.742Z,2.10
2023-11-09T12:04:08.389Z,2.90
2023-11-09T12:06:42.945Z,2.40
2023-11-09T12:09:16.814Z,2.60
2023-11-09T12:11:51.202Z,2.50
2023-11-09T12:14:26.310Z,1.30
2023-11-09T12:16:58.444Z,5.20
2023-11-09T12:19:30.420Z,2.40
2023-11-09T12:22:02.577Z,1.60
2023-11-09T12:24:34.490Z,1.80
2023-11-09T12:27:12.244Z,2.10
2023-11-09T12:29:44.748Z,3.50
2023-11-09T12:32:17.094Z,1.80
2023-11-09T12:34:49.863Z,2.90
2023-11-09T12:37:30.862Z,3.00
2023-11-09T12:40:05.334Z,3.80
2023-11-09T12:42:39.258Z,2.80
2023-11-09T12:45:15.812Z,3.10
2023-11-09T12:47:48.940Z,2.90
2023-11-09T12:50:21.811Z,2.10
2023-11-09T12:52:59.613Z,3.20
2023-11-09T12:55:33.403Z,2.30
2023-11-09T12:58:07.136Z,2.20
2023-11-09T13:00:39.740Z,3.00
2023-11-09T13:03:14.105Z,1.50
2023-11-09T13:05:46.099Z,2.70
2023-11-09T13:08:17.903Z,1.90
2023-11-09T13:10:57.274Z,3.00
2023-11-09T13:13:34.751Z,1.60
2023-11-09T13:16:15.267Z,3.20
2023-11-09T13:18:52.135Z,2.90
2023-11-09T13:21:25.208Z,2.70
2023-11-09T13:23:58.272Z,3.70
2023-11-09T13:26:31.252Z,1.40
2023-11-09T13:29:07.560Z,2.80
2023-11-09T13:31:40.707Z,1.40
2023-11-09T13:34:12.822Z,1.70
2023-11-09T13:36:54.782Z,4.80
2023-11-09T13:39:51.372Z,2.70
2023-11-09T13:42:38.026Z,2.20
2023-11-09T13:45:34.928Z,1.50
2023-11-09T13:48:11.093Z,3.00
2023-11-09T13:50:48.028Z,2.80
2023-11-09T13:53:43.104Z,2.20
2023-11-09T13:56:32.713Z,2.60
2023-11-09T13:59:13.558Z,2.60
2023-11-09T14:01:51.551Z,2.10
2023-11-09T14:04:24.463Z,2.40
2023-11-09T14:06:56.676Z,2.10
2023-11-09T14:09:35.554Z,2.00
2023-11-09T14:12:10.858Z,2.40
2023-11-09T14:14:46.527Z,2.40
2023-11-09T14:17:19.051Z,3.70
2023-11-09T14:19:55.205Z,3.00
2023-11-09T14:22:30.093Z,2.60
2023-11-09T14:25:03.800Z,3.30
2023-11-09T14:27:37.598Z,2.60
2023-11-09T14:30:14.455Z,3.30
2023-11-09T14:32:46.403Z,3.30
2023-11-09T14:35:18.805Z,4.80
2023-11-09T14:37:52.410Z,3.20
2023-11-09T14:40:27.574Z,3.70
2023-11-09T14:43:07.652Z,3.90
2023-11-09T14:48:16.162Z,4.30
2023-11-09T14:50:49.292Z,3.30
2023-11-09T14:53:33.622Z,4.00
2023-11-09T14:56:11.685Z,2.80
2023-11-09T14:58:46.018Z,2.10
2023-11-09T15:01:19.686Z,3.90
2023-11-09T15:03:57.600Z,4.10
2023-11-09T15:06:30.144Z,6.40
2023-11-09T15:09:10.987Z,4.40
2023-11-09T15:11:42.868Z,5.60
2023-11-09T15:14:14.785Z,4.20
2023-11-09T15:16:47.816Z,6.70
2023-11-09T15:19:19.716Z,2.80
2023-11-09T15:21:53.107Z,3.70
2023-11-09T15:24:25.006Z,3.50
2023-11-09T15:26:56.931Z,3.30
2023-11-09T15:29:29.544Z,2.70
2023-11-09T15:32:02.371Z,3.70
2023-11-09T15:34:35.069Z,3.10
2023-11-09T15:37:08.260Z,3.60
2023-11-09T15:40:12.150Z,3.20
2023-11-09T15:42:32.481Z,4.80
2023-11-09T15:45:04.905Z,2.80
2023-11-09T15:47:38.278Z,6.10
2023-11-09T15:50:12.634Z,2.60
2023-11-09T15:52:45.594Z,3.40
2023-11-09T15:55:17.776Z,3.60
2023-11-09T15:57:53.119Z,4.30
2023-11-09T16:00:27.708Z,4.80
2023-11-09T16:02:59.742Z,2.90
2023-11-09T16:05:31.641Z,3.70
2023-11-09T16:08:06.064Z,3.30
2023-11-09T16:10:40.063Z,4.80
2023-11-09T16:13:12.924Z,5.10
2023-11-09T16:15:45.598Z,4.40
2023-11-09T16:18:17.459Z,6.00
2023-11-09T16:20:50.268Z,7.40
2023-11-09T16:23:22.221Z,6.70
2023-11-09T16:25:54.110Z,7.60
2023-11-09T16:28:31.942Z,9.40
2023-11-09T16:31:07.943Z,9.50
2023-11-09T16:33:40.829Z,6.50
2023-11-09T16:36:14.878Z,10.60
2023-11-09T16:38:46.887Z,8.80
2023-11-09T16:41:18.877Z,9.10
2023-11-09T16:43:50.810Z,8.40
2023-11-09T16:46:24.731Z,10.00
2023-11-09T16:48:56.630Z,9.50
2023-11-09T16:51:28.940Z,10.20
2023-11-09T16:54:00.932Z,9.50
2023-11-09T16:56:32.854Z,9.50
2023-11-09T16:59:04.732Z,8.90
2023-11-09T17:01:37.029Z,10.20
2023-11-09T17:04:09.004Z,10.90
2023-11-09T17:06:41.343Z,9.00
2023-11-09T17:09:16.967Z,10.30
2023-11-09T17:11:48.761Z,8.80
2023-11-09T17:14:21.518Z,10.90
2023-11-09T17:16:54.354Z,11.10
2023-11-09T17:19:26.252Z,10.70
2023-11-09T17:21:58.201Z,11.90
2023-11-09T17:24:31.816Z,11.60
2023-11-09T17:27:03.697Z,10.60
2023-11-09T17:29:35.548Z,11.90
2023-11-09T17:32:07.957Z,15.20
2023-11-09T17:34:39.984Z,13.00
2023-11-09T17:37:11.868Z,15.40
2023-11-09T17:39:43.766Z,14.60
2023-11-09T17:42:16.285Z,17.40
2023-11-09T17:44:48.100Z,19.20
2023-11-09T17:47:20.033Z,17.70
2023-11-09T17:49:52.062Z,15.10
2023-11-09T17:52:23.968Z,17.30
2023-11-09T17:54:55.816Z,17.00
2023-11-09T17:57:27.655Z,16.50
2023-11-09T17:59:59.527Z,12.10
2023-11-09T18:02:31.682Z,11.70
2023-11-09T18:05:03.643Z,15.70
2023-11-09T18:07:35.792Z,13.00
2023-11-09T18:10:08.894Z,12.00
2023-11-09T18:12:43.152Z,13.00
2023-11-09T18:15:16.068Z,10.50
2023-11-09T18:17:47.952Z,12.00
2023-11-09T18:20:19.963Z,12.90
2023-11-09T18:22:51.841Z,11.40
2023-11-09T18:25:26.513Z,11.20
2023-11-09T18:27:58.377Z,11.00
2023-11-09T18:30:30.255Z,12.30
2023-11-09T18:33:02.739Z,10.20
2023-11-09T18:35:34.613Z,12.60
2023-11-09T18:38:06.412Z,11.60
2023-11-09T18:40:38.618Z,14.80
2023-11-09T18:43:10.620Z,13.10
2023-11-09T18:45:45.343Z,14.30
2023-11-09T18:48:18.458Z,11.60
2023-11-09T18:53:25.291Z,12.30
2023-11-09T18:55:57.445Z,13.90
2023-11-09T18:58:29.377Z,13.70
2023-11-09T19:01:01.496Z,14.80
2023-11-09T19:06:08.908Z,14.80
2023-11-09T19:08:40.813Z,18.60
2023-11-09T19:11:14.833Z,17.50
2023-11-09T19:13:47.386Z,16.70
2023-11-09T19:16:19.965Z,19.60
2023-11-09T19:18:52.033Z,23.00
2023-11-09T19:23:59.749Z,18.20
2023-11-09T19:26:31.869Z,21.70
2023-11-09T19:29:03.772Z,25.30
2023-11-09T19:31:35.601Z,19.90
2023-11-09T19:34:08.372Z,24.60
2023-11-09T19:36:41.842Z,19.90
2023-11-09T19:39:14.687Z,25.30
2023-11-09T19:41:46.528Z,22.40
2023-11-09T19:44:18.555Z,21.70
2023-11-09T19:46:50.447Z,21.20
2023-11-09T19:49:22.361Z,23.50
2023-11-09T19:51:54.444Z,21.80
2023-11-09T19:54:26.313Z,29.50
2023-11-09T19:56:58.421Z,23.40
2023-11-09T19:59:32.179Z,28.10
2023-11-09T20:02:07.026Z,23.70
2023-11-09T20:04:39.446Z,24.40
2023-11-09T20:07:11.263Z,27.10
2023-11-09T20:09:43.314Z,23.90
2023-11-09T20:12:16.174Z,28.80
2023-11-09T20:14:48.120Z,27.60
2023-11-09T20:17:19.989Z,23.00
2023-11-09T20:19:51.817Z,29.90
2023-11-09T20:22:23.640Z,27.90
2023-11-09T20:24:55.530Z,25.80
2023-11-09T20:27:27.358Z,25.00
2023-11-09T20:29:59.307Z,25.90
2023-11-09T20:32:31.393Z,24.50
2023-11-09T20:35:03.290Z,24.90
2023-11-09T20:37:36.396Z,20.60
2023-11-09T20:40:10.638Z,22.20
2023-11-09T20:42:43.878Z,20.70
2023-11-09T20:45:18.089Z,22.20
2023-11-09T20:47:51.208Z,22.70
2023-11-09T20:50:25.518Z,22.10
2023-11-09T20:52:57.443Z,21.70
2023-11-09T20:55:30.254Z,24.60
2023-11-09T20:58:02.836Z,23.50
2023-11-09T21:00:35.719Z,23.40
2023-11-09T21:03:08.769Z,20.50
2023-11-09T21:05:46.232Z,23.70
2023-11-09T21:08:18.466Z,25.20
2023-11-09T21:10:50.256Z,27.70
2023-11-09T21:13:24.111Z,31.40
2023-11-09T21:15:55.940Z,32.90
2023-11-09T21:18:27.754Z,34.50
2023-11-09T21:21:00.667Z,33.60
2023-11-09T21:23:32.600Z,43.10
2023-11-09T21:26:07.732Z,40.20
2023-11-09T21:28:40.274Z,35.60
2023-11-09T21:31:12.095Z,43.80
2023-11-09T21:33:45.170Z,36.80
2023-11-09T21:36:17.965Z,42.40
2023-11-09T21:38:49.862Z,42.00
2023-11-09T21:41:21.869Z,41.70
2023-11-09T21:43:53.746Z,38.10
2023-11-09T21:46:25.562Z,40.60
2023-11-09T21:48:57.840Z,42.90
2023-11-09T21:51:29.803Z,38.80
2023-11-09T21:54:01.671Z,35.90
2023-11-09T21:56:33.507Z,35.00
2023-11-09T21:59:05.367Z,31.00
2023-11-09T22:01:37.744Z,32.90
2023-11-09T22:04:10.154Z,31.10
2023-11-09T22:06:42.047Z,27.10
2023-11-09T22:09:15.903Z,29.10
2023-11-09T22:11:48.298Z,30.80
2023-11-09T22:14:20.366Z,28.30
2023-11-09T22:16:54.098Z,27.70
2023-11-09T22:19:25.934Z,28.00
2023-11-09T22:21:58.072Z,21.70
2023-11-09T22:24:30.167Z,24.60
2023-11-09T22:27:02.227Z,20.60
2023-11-09T22:29:34.648Z,20.00
2023-11-09T22:32:07.400Z,20.10
2023-11-09T22:34:39.256Z,19.10
2023-11-09T22:37:11.404Z,21.10
2023-11-09T22:39:43.235Z,16.10
2023-11-09T22:42:15.101Z,14.80
2023-11-09T22:44:47.853Z,17.90
2023-11-09T22:47:19.722Z,12.90
2023-11-09T22:49:51.547Z,14.10
2023-11-09T22:52:23.443Z,17.40
2023-11-09T22:54:55.254Z,15.10
2023-11-09T22:57:27.088Z,18.00
2023-11-09T22:59:59.059Z,18.70
2023-11-09T23:02:30.901Z,14.90
2023-11-09T23:05:02.730Z,19.00
2023-11-09T23:07:34.523Z,17.90
2023-11-09T23:10:10.134Z,18.00
2023-11-09T23:12:43.006Z,18.10
2023-11-09T23:15:15.976Z,14.40
2023-11-09T23:17:48.086Z,15.50
2023-11-09T23:20:20.256Z,14.00
2023-11-09T23:22:52.110Z,14.50
2023-11-09T23:25:24.775Z,13.10
2023-11-09T23:27:57.352Z,17.90
2023-11-09T23:30:29.740Z,13.90
2023-11-09T23:33:02.281Z,11.10
2023-11-09T23:35:34.163Z,13.30
2023-11-09T23:38:06.000Z,12.50
2023-11-09T23:40:38.216Z,14.40
2023-11-09T23:43:10.036Z,14.60
2023-11-09T23:45:41.946Z,13.10
2023-11-09T23:48:13.924Z,15.20
2023-11-09T23:50:46.255Z,12.40
2023-11-09T23:53:18.383Z,17.90
2023-11-09T23:55:51.244Z,12.80
2023-11-09T23:58:26.140Z,11.10
